createdAt,value
2016-09-09T00:00:32.706Z,17.97
2016-09-09T00:01:32.729Z,17.95
2016-09-09T00:02:32.748Z,17.97
2016-09-09T00:03:32.772Z,17.95
2016-09-09T00:04:32.797Z,17.92
2016-09-09T00:05:32.843Z,17.86
2016-09-09T00:06:47.772Z,17.84
2016-09-09T00:07:32.881Z,17.79
2016-09-09T00:08:32.923Z,17.79
2016-09-09T00:09:32.941Z,17.7
2016-09-09T00:10:32.955Z,17.68
2016-09-09T00:11:32.977Z,17.72
2016-09-09T00:12:33.015Z,17.71
2016-09-09T00:13:33.026Z,17.75
2016-09-09T00:14:33.064Z,17.62
2016-09-09T00:15:33.082Z,17.64
2016-09-09T00:16:33.105Z,17.62
2016-09-09T00:18:33.182Z,17.58
2016-09-09T00:19:33.192Z,17.48
2016-09-09T00:20:33.235Z,17.52
2016-09-09T00:21:33.239Z,17.55
2016-09-09T00:22:48.205Z,17.44
2016-09-09T00:23:33.299Z,17.54
2016-09-09T00:24:33.315Z,17.49
2016-09-09T00:25:33.375Z,17.56
2016-09-09T00:26:33.379Z,17.38
2016-09-09T00:27:33.401Z,17.38
2016-09-09T00:28:33.422Z,17.4
2016-09-09T00:29:33.457Z,17.43
2016-09-09T00:30:33.481Z,17.38
2016-09-09T00:31:33.521Z,17.48
2016-09-09T00:32:48.457Z,17.38
2016-09-09T00:33:33.579Z,17.43
2016-09-09T00:34:33.578Z,17.3
2016-09-09T00:35:48.531Z,17.23
2016-09-09T00:36:33.652Z,17.28
2016-09-09T00:37:48.582Z,17.26
2016-09-09T00:38:33.698Z,17.28
2016-09-09T00:39:33.707Z,17.15
2016-09-09T00:40:48.670Z,17.23
2016-09-09T00:41:48.694Z,17.22
2016-09-09T00:42:33.788Z,17.23
2016-09-09T00:43:33.830Z,17.22
2016-09-09T00:44:33.841Z,17.19
2016-09-09T00:45:33.863Z,17.21
2016-09-09T00:46:33.890Z,17.22
2016-09-09T00:47:33.915Z,17.23
2016-09-09T00:48:33.963Z,17.19
2016-09-09T00:49:33.971Z,17.25
2016-09-09T00:50:34.003Z,17.31
2016-09-09T00:51:34.025Z,17.41
2016-09-09T00:52:48.971Z,17.28
2016-09-09T00:53:34.088Z,17.3
2016-09-09T00:54:34.103Z,17.3
2016-09-09T00:55:34.121Z,17.22
2016-09-09T00:56:34.171Z,17.3
2016-09-09T00:57:34.176Z,17.18
2016-09-09T00:58:34.201Z,17.25
2016-09-09T00:59:34.224Z,17.19
2016-09-09T01:00:34.261Z,17.23
2016-09-09T01:01:34.291Z,17.15
2016-09-09T01:02:34.308Z,17.12
2016-09-09T01:03:34.394Z,17.03
2016-09-09T01:04:34.368Z,17.04
2016-09-09T01:05:34.389Z,17.15
2016-09-09T01:06:34.406Z,17.12
2016-09-09T01:07:34.442Z,17.25
2016-09-09T01:08:34.464Z,17.19
2016-09-09T01:09:49.418Z,17.22
2016-09-09T01:10:34.512Z,17.19
2016-09-09T01:11:34.537Z,17.22
2016-09-09T01:12:34.562Z,17.28
2016-09-09T01:13:34.584Z,17.16
2016-09-09T01:14:34.618Z,17.22
2016-09-09T01:15:34.637Z,17.15
2016-09-09T01:16:34.667Z,17.19
2016-09-09T01:17:34.709Z,17.25
2016-09-09T01:18:34.719Z,17.18
2016-09-09T01:19:34.757Z,17.14
2016-09-09T01:20:34.778Z,17.16
2016-09-09T01:21:34.813Z,17.15
2016-09-09T01:22:34.849Z,17.03
2016-09-09T01:23:34.840Z,17.07
2016-09-09T01:24:34.884Z,17.11
2016-09-09T01:25:49.825Z,16.89
2016-09-09T01:26:34.940Z,16.97
2016-09-09T01:27:34.950Z,16.85
2016-09-09T01:28:34.986Z,16.81
2016-09-09T01:29:34.999Z,16.88
2016-09-09T01:30:35.055Z,16.86
2016-09-09T01:31:35.063Z,16.88
2016-09-09T01:32:35.077Z,16.82
2016-09-09T01:33:35.116Z,16.94
2016-09-09T01:34:35.139Z,16.85
2016-09-09T01:35:35.166Z,16.93
2016-09-09T01:36:35.197Z,16.85
2016-09-09T01:37:35.225Z,16.96
2016-09-09T01:38:35.240Z,16.93
2016-09-09T01:39:35.270Z,16.96
2016-09-09T01:40:35.308Z,16.96
2016-09-09T01:41:50.234Z,16.89
2016-09-09T01:42:35.348Z,16.96
2016-09-09T01:43:35.392Z,16.96
2016-09-09T01:44:35.390Z,16.97
2016-09-09T01:45:35.416Z,16.88
2016-09-09T01:46:35.741Z,16.86
2016-09-09T01:47:35.496Z,16.85
2016-09-09T01:48:35.490Z,16.75
2016-09-09T01:49:35.545Z,16.79
2016-09-09T01:50:35.544Z,16.67
2016-09-09T01:51:35.582Z,16.7
2016-09-09T01:52:35.606Z,16.7
2016-09-09T01:53:50.546Z,16.68
2016-09-09T01:54:35.670Z,16.76
2016-09-09T01:55:35.681Z,16.67
2016-09-09T01:56:35.693Z,16.64
2016-09-09T01:57:50.645Z,16.58
2016-09-09T01:59:35.771Z,16.58
2016-09-09T02:00:35.797Z,16.53
2016-09-09T02:01:35.903Z,16.5
2016-09-09T02:02:35.853Z,16.5
2016-09-09T02:03:35.877Z,16.52
2016-09-09T02:04:35.905Z,16.57
2016-09-09T02:05:35.938Z,16.48
2016-09-09T02:06:35.961Z,16.48
2016-09-09T02:07:35.976Z,16.45
2016-09-09T02:08:36.018Z,16.58
2016-09-09T02:09:36.053Z,16.48
2016-09-09T02:10:36.064Z,16.61
2016-09-09T02:11:36.097Z,16.63
2016-09-09T02:12:51.031Z,16.56
2016-09-09T02:13:36.140Z,16.56
2016-09-09T02:14:36.172Z,16.46
2016-09-09T02:15:36.209Z,16.48
2016-09-09T02:16:36.214Z,16.42
2016-09-09T02:17:36.241Z,16.33
2016-09-09T02:18:36.271Z,16.35
2016-09-09T02:19:51.221Z,16.41
2016-09-09T02:20:36.321Z,16.42
2016-09-09T02:23:36.416Z,16.31
2016-09-09T02:24:36.414Z,16.45
2016-09-09T02:25:36.467Z,16.46
2016-09-09T02:26:36.470Z,16.39
2016-09-09T02:27:36.493Z,16.35
2016-09-09T02:28:36.542Z,16.31
2016-09-09T02:29:51.468Z,16.42
2016-09-09T02:30:36.583Z,16.35
2016-09-09T02:32:36.625Z,16.27
2016-09-09T02:33:36.658Z,16.25
2016-09-09T02:35:36.711Z,16.41
2016-09-09T02:37:36.745Z,16.33
2016-09-09T02:38:36.773Z,16.31
2016-09-09T02:39:36.800Z,16.28
2016-09-09T02:40:36.852Z,16.28
2016-09-09T02:41:36.863Z,16.27
2016-09-09T02:42:36.874Z,16.27
2016-09-09T02:43:36.919Z,16.21
2016-09-09T02:44:51.852Z,16.21
2016-09-09T02:45:36.951Z,16.25
2016-09-09T02:46:36.981Z,16.2
2016-09-09T02:47:37.022Z,16.21
2016-09-09T02:48:37.024Z,16.17
2016-09-09T02:49:37.047Z,16.17
2016-09-09T02:50:37.094Z,16.17
2016-09-09T02:51:37.100Z,16.25
2016-09-09T02:52:37.138Z,16.33
2016-09-09T02:53:37.164Z,16.2
2016-09-09T02:54:37.178Z,16.09
2016-09-09T02:55:37.209Z,16.11
2016-09-09T02:56:37.231Z,16.05
2016-09-09T02:57:37.267Z,16.05
2016-09-09T02:58:37.291Z,16.04
2016-09-09T02:59:37.336Z,16.12
2016-09-09T03:00:52.260Z,16.27
2016-09-09T03:01:37.387Z,16.27
2016-09-09T03:02:52.304Z,16.27
2016-09-09T03:04:37.432Z,16.25
2016-09-09T03:05:37.469Z,16.24
2016-09-09T03:06:37.485Z,16.28
2016-09-09T03:07:37.531Z,16.38
2016-09-09T03:08:37.602Z,16.39
2016-09-09T03:09:37.563Z,16.41
2016-09-09T03:10:37.592Z,16.31
2016-09-09T03:11:37.614Z,16.34
2016-09-09T03:12:37.659Z,16.31
2016-09-09T03:13:37.662Z,16.34
2016-09-09T03:14:37.710Z,16.25
2016-09-09T03:16:52.661Z,16.23
2016-09-09T03:17:37.776Z,16.24
2016-09-09T03:18:37.789Z,16.34
2016-09-09T03:19:37.830Z,16.2
2016-09-09T03:20:37.841Z,16.08
2016-09-09T03:21:37.879Z,16.17
2016-09-09T03:22:37.902Z,16.21
2016-09-09T03:23:37.926Z,16.12
2016-09-09T03:24:37.945Z,16.11
2016-09-09T03:25:37.965Z,16.02
2016-09-09T03:26:38.003Z,15.97
2016-09-09T03:27:38.021Z,16
2016-09-09T03:28:38.042Z,16.01
2016-09-09T03:29:38.101Z,15.97
2016-09-09T03:30:38.095Z,16.04
2016-09-09T03:31:38.130Z,16.01
2016-09-09T03:32:53.068Z,16.01
2016-09-09T03:33:38.191Z,15.97
2016-09-09T03:34:38.196Z,16
2016-09-09T03:35:38.227Z,16.11
2016-09-09T03:36:38.257Z,16.01
2016-09-09T03:38:53.236Z,16.07
2016-09-09T03:39:38.317Z,15.93
2016-09-09T03:40:38.372Z,15.93
2016-09-09T03:43:38.419Z,15.94
2016-09-09T03:44:53.376Z,15.87
2016-09-09T03:45:38.514Z,15.9
2016-09-09T03:46:38.512Z,15.97
2016-09-09T03:47:53.453Z,15.83
2016-09-09T03:48:38.571Z,15.86
2016-09-09T03:49:38.577Z,15.87
2016-09-09T03:50:38.608Z,15.87
2016-09-09T03:51:38.637Z,15.87
2016-09-09T03:52:53.585Z,15.93
2016-09-09T03:53:38.675Z,15.89
2016-09-09T03:54:38.697Z,15.83
2016-09-09T03:55:38.724Z,15.82
2016-09-09T03:56:38.749Z,15.87
2016-09-09T03:57:38.779Z,15.86
2016-09-09T03:58:38.814Z,15.84
2016-09-09T03:59:38.827Z,15.83
2016-09-09T04:01:38.897Z,15.75
2016-09-09T04:02:38.903Z,15.74
2016-09-09T04:03:38.938Z,15.74
2016-09-09T04:04:38.957Z,15.71
2016-09-09T04:05:38.991Z,15.74
2016-09-09T04:06:39.000Z,15.89
2016-09-09T04:07:39.043Z,15.82
2016-09-09T04:10:39.108Z,15.86
2016-09-09T04:11:39.138Z,15.76
2016-09-09T04:12:39.165Z,15.76
2016-09-09T04:13:39.178Z,15.72
2016-09-09T04:14:39.213Z,15.65
2016-09-09T04:15:39.289Z,15.74
2016-09-09T04:16:39.284Z,15.76
2016-09-09T04:17:54.206Z,15.82
2016-09-09T04:18:39.328Z,15.83
2016-09-09T04:19:54.260Z,15.69
2016-09-09T04:20:39.358Z,15.67
2016-09-09T04:21:39.397Z,15.83
2016-09-09T04:23:39.441Z,15.83
2016-09-09T04:25:39.548Z,15.76
2016-09-09T04:26:39.507Z,15.83
2016-09-09T04:27:39.854Z,15.78
2016-09-09T04:28:39.559Z,15.84
2016-09-09T04:29:39.594Z,15.82
2016-09-09T04:30:39.618Z,15.89
2016-09-09T04:31:39.648Z,15.78
2016-09-09T04:32:39.959Z,15.8
2016-09-09T04:33:39.699Z,15.76
2016-09-09T04:34:39.708Z,15.8
2016-09-09T04:35:54.663Z,15.72
2016-09-09T04:36:54.684Z,15.83
2016-09-09T04:37:39.790Z,15.74
2016-09-09T04:38:39.811Z,15.8
2016-09-09T04:39:39.830Z,15.89
2016-09-09T04:40:39.881Z,15.78
2016-09-09T04:41:39.906Z,15.83
2016-09-09T04:42:39.907Z,15.89
2016-09-09T04:43:39.936Z,15.83
2016-09-09T04:44:39.963Z,15.82
2016-09-09T04:45:40.000Z,15.83
2016-09-09T04:47:40.049Z,16
2016-09-09T04:48:40.074Z,16.05
2016-09-09T04:49:40.114Z,16.05
2016-09-09T04:50:40.109Z,15.97
2016-09-09T04:51:55.070Z,15.93
2016-09-09T04:52:40.163Z,15.96
2016-09-09T04:53:40.193Z,16.01
2016-09-09T04:54:40.210Z,16.02
2016-09-09T04:55:40.240Z,16.02
2016-09-09T04:56:40.266Z,16.08
2016-09-09T04:57:40.298Z,16.12
2016-09-09T04:58:40.347Z,16.12
2016-09-09T04:59:40.339Z,16.2
2016-09-09T05:01:40.385Z,16.33
2016-09-09T05:02:40.414Z,16.31
2016-09-09T05:03:40.439Z,16.28
2016-09-09T05:04:40.477Z,16.48
2016-09-09T05:05:40.499Z,16.42
2016-09-09T05:06:55.496Z,16.64
2016-09-09T05:07:55.477Z,16.66
2016-09-09T05:08:40.565Z,16.81
2016-09-09T05:09:40.620Z,16.85
2016-09-09T05:10:40.624Z,16.85
2016-09-09T05:11:40.658Z,16.86
2016-09-09T05:12:40.678Z,17.03
2016-09-09T05:13:40.706Z,17.16
2016-09-09T05:14:40.721Z,17.18
2016-09-09T05:15:40.793Z,17.19
2016-09-09T05:16:40.779Z,17.21
2016-09-09T05:17:40.790Z,17.23
2016-09-09T05:18:40.820Z,17.33
2016-09-09T05:19:40.871Z,17.43
2016-09-09T05:20:40.868Z,17.55
2016-09-09T05:21:40.915Z,17.62
2016-09-09T05:22:55.846Z,17.52
2016-09-09T05:23:40.962Z,17.59
2016-09-09T05:24:40.976Z,17.68
2016-09-09T05:25:41.006Z,17.72
2016-09-09T05:26:55.958Z,17.95
2016-09-09T05:27:41.049Z,17.97
2016-09-09T05:28:41.092Z,18.1
2016-09-09T05:29:41.153Z,18.08
2016-09-09T05:30:41.150Z,18.12
2016-09-09T05:31:41.154Z,18.3
2016-09-09T05:32:41.176Z,18.23
2016-09-09T05:33:41.202Z,18.42
2016-09-09T05:34:41.249Z,18.37
2016-09-09T05:35:41.251Z,18.41
2016-09-09T05:37:41.328Z,18.36
2016-09-09T05:38:41.338Z,18.48
2016-09-09T05:39:41.383Z,18.54
2016-09-09T05:40:41.384Z,18.52
2016-09-09T05:41:41.419Z,18.63
2016-09-09T05:42:41.436Z,18.8
2016-09-09T05:43:41.461Z,18.7
2016-09-09T05:44:41.490Z,18.72
2016-09-09T05:45:41.520Z,18.82
2016-09-09T05:46:41.543Z,18.87
2016-09-09T05:47:41.579Z,18.9
2016-09-09T05:49:41.618Z,19.1
2016-09-09T05:50:41.645Z,19.19
2016-09-09T05:51:41.686Z,19.5
2016-09-09T05:52:42.033Z,19.74
2016-09-09T05:53:41.732Z,20.01
2016-09-09T05:54:56.678Z,20.23
2016-09-09T05:55:56.699Z,20.42
2016-09-09T05:56:41.814Z,20.62
2016-09-09T05:57:41.825Z,20.95
2016-09-09T05:58:41.879Z,21.19
2016-09-09T05:59:41.896Z,21.37
2016-09-09T06:00:41.926Z,21.65
2016-09-09T06:01:41.938Z,21.77
2016-09-09T06:02:41.966Z,22.02
2016-09-09T06:03:42.009Z,22.25
2016-09-09T06:05:42.070Z,22.25
2016-09-09T06:06:42.084Z,22.42
2016-09-09T06:07:42.191Z,22.45
2016-09-09T06:08:57.075Z,22.52
2016-09-09T06:09:42.177Z,22.6
2016-09-09T06:10:57.131Z,22.79
2016-09-09T06:11:42.239Z,23.01
2016-09-09T06:12:42.280Z,23.02
2016-09-09T06:14:42.334Z,23.01
2016-09-09T06:15:57.304Z,23.25
2016-09-09T06:16:42.411Z,23.31
2016-09-09T06:17:42.425Z,23.65
2016-09-09T06:18:42.478Z,23.66
2016-09-09T06:19:42.491Z,23.7
2016-09-09T06:20:42.515Z,23.83
2016-09-09T06:22:42.608Z,23.75
2016-09-09T06:23:42.626Z,23.94
2016-09-09T06:24:42.643Z,23.83
2016-09-09T06:25:42.682Z,24.03
2016-09-09T06:26:57.649Z,24.39
2016-09-09T06:27:57.673Z,24.42
2016-09-09T06:28:42.803Z,24.49
2016-09-09T06:29:42.825Z,24.52
2016-09-09T06:30:42.842Z,24.58
2016-09-09T06:31:42.876Z,24.62
2016-09-09T06:32:43.226Z,24.65
2016-09-09T06:33:42.939Z,24.88
2016-09-09T06:34:42.988Z,25.08
2016-09-09T06:35:43.024Z,24.46
2016-09-09T06:36:43.049Z,24.43
2016-09-09T06:37:43.095Z,24.53
2016-09-09T06:38:43.113Z,24.57
2016-09-09T06:39:43.157Z,24.84
2016-09-09T06:40:43.503Z,25.18
2016-09-09T06:41:43.211Z,25.17
2016-09-09T06:42:58.186Z,25.42
2016-09-09T06:43:43.286Z,25.61
2016-09-09T06:44:43.321Z,25.76
2016-09-09T06:46:43.387Z,26.05
2016-09-09T06:47:58.363Z,26.2
2016-09-09T06:48:43.450Z,25.94
2016-09-09T06:49:43.500Z,25.82
2016-09-09T06:50:43.533Z,26.01
2016-09-09T06:51:43.559Z,26.07
2016-09-09T06:52:43.592Z,26.07
2016-09-09T06:53:43.627Z,26.06
2016-09-09T06:54:43.676Z,25.85
2016-09-09T06:55:43.693Z,25.99
2016-09-09T06:56:43.745Z,25.8
2016-09-09T06:57:58.696Z,26.02
2016-09-09T06:58:58.732Z,26.26
2016-09-09T06:59:43.860Z,26.55
2016-09-09T07:00:43.872Z,26.5
2016-09-09T07:01:58.850Z,26.73
2016-09-09T07:02:43.946Z,26.72
2016-09-09T07:03:43.993Z,26.48
2016-09-09T07:04:44.040Z,26.17
2016-09-09T07:06:44.096Z,26.43
2016-09-09T07:07:44.123Z,26.67
2016-09-09T07:08:44.151Z,26.67
2016-09-09T07:09:44.185Z,26.85
2016-09-09T07:10:44.223Z,27.1
2016-09-09T07:11:44.264Z,26.97
2016-09-09T07:12:44.290Z,27.02
2016-09-09T07:13:44.342Z,26.8
2016-09-09T07:14:59.288Z,26.63
2016-09-09T07:16:44.448Z,26.62
2016-09-09T07:17:44.467Z,26.88
2016-09-09T07:18:44.503Z,27.07
2016-09-09T07:19:44.561Z,26.94
2016-09-09T07:20:44.573Z,26.55
2016-09-09T07:21:44.631Z,26.67
2016-09-09T07:22:44.645Z,26.55
2016-09-09T07:23:44.690Z,26.73
2016-09-09T07:24:44.718Z,26.94
2016-09-09T07:25:44.749Z,27.25
2016-09-09T07:28:44.872Z,28.09
2016-09-09T07:29:59.817Z,28
2016-09-09T07:30:45.243Z,28.14
2016-09-09T07:31:44.964Z,27.67
2016-09-09T07:32:45.025Z,27.62
2016-09-09T07:33:45.085Z,28
2016-09-09T07:34:45.128Z,27.84
2016-09-09T07:35:45.118Z,27.66
2016-09-09T07:36:45.459Z,27.7
2016-09-09T07:38:00.113Z,28.07
2016-09-09T07:38:45.225Z,27.96
2016-09-09T07:39:45.259Z,28.22
2016-09-09T07:40:45.291Z,28.52
2016-09-09T07:41:45.318Z,28.64
2016-09-09T07:43:00.285Z,28.52
2016-09-09T07:43:45.404Z,28.64
2016-09-09T07:44:45.429Z,28.55
2016-09-09T07:46:00.393Z,28.39
2016-09-09T07:47:00.426Z,28.09
2016-09-09T07:47:45.534Z,28.3
2016-09-09T07:48:45.570Z,28.59
2016-09-09T07:49:45.601Z,28.8
2016-09-09T07:50:45.643Z,29.05
2016-09-09T07:51:45.672Z,28.77
2016-09-09T07:52:45.733Z,28.71
2016-09-09T07:53:45.766Z,28.76
2016-09-09T07:54:45.794Z,28.88
2016-09-09T07:55:45.817Z,28.21
2016-09-09T07:56:45.857Z,28.51
2016-09-09T07:57:45.901Z,28.62
2016-09-09T07:59:00.852Z,28.98
2016-09-09T07:59:45.972Z,28.95
2016-09-09T08:00:46.326Z,28.73
2016-09-09T08:02:00.953Z,28.61
2016-09-09T08:02:46.090Z,28.27
2016-09-09T08:03:46.114Z,28.21
2016-09-09T08:04:46.142Z,27.96
2016-09-09T08:05:46.485Z,27.97
2016-09-09T08:06:46.209Z,28.25
2016-09-09T08:07:46.245Z,28.3
2016-09-09T08:08:46.297Z,28.44
2016-09-09T08:09:46.318Z,28.39
2016-09-09T08:10:46.354Z,28.11
2016-09-09T08:11:46.381Z,28.3
2016-09-09T08:12:46.426Z,28.34
2016-09-09T08:13:46.456Z,28.52
2016-09-09T08:14:46.504Z,28.3
2016-09-09T08:15:46.521Z,28.66
2016-09-09T08:16:46.583Z,28.8
2016-09-09T08:18:01.524Z,28.44
2016-09-09T08:19:01.556Z,28.21
2016-09-09T08:19:46.666Z,28.33
2016-09-09T08:20:46.712Z,28.67
2016-09-09T08:21:46.744Z,28.67
2016-09-09T08:22:46.785Z,28.9
2016-09-09T08:23:46.800Z,29.39
2016-09-09T08:24:46.843Z,29.48
2016-09-09T08:25:46.895Z,29.63
2016-09-09T08:26:46.960Z,29.89
2016-09-09T08:27:46.970Z,29.57
2016-09-09T08:28:46.974Z,29.23
2016-09-09T08:29:47.026Z,29.12
2016-09-09T08:31:01.975Z,28.49
2016-09-09T08:31:47.092Z,28.58
2016-09-09T08:33:02.042Z,28.78
2016-09-09T08:33:47.152Z,28.68
2016-09-09T08:34:47.191Z,28.33
2016-09-09T08:35:47.219Z,28.55
2016-09-09T08:36:47.262Z,28.77
2016-09-09T08:37:47.308Z,29.3
2016-09-09T08:38:47.374Z,29.52
2016-09-09T08:39:47.377Z,29.39
2016-09-09T08:40:47.394Z,29.45
2016-09-09T08:41:47.435Z,29.58
2016-09-09T08:42:47.468Z,29.74
2016-09-09T08:43:47.501Z,29.55
2016-09-09T08:45:47.576Z,28.83
2016-09-09T08:46:47.626Z,29.15
2016-09-09T08:47:47.643Z,29.36
2016-09-09T08:48:47.684Z,29.3
2016-09-09T08:49:47.708Z,28.89
2016-09-09T08:50:47.761Z,28.83
2016-09-09T08:51:47.799Z,28.68
2016-09-09T08:52:47.816Z,28.17
2016-09-09T08:54:02.787Z,28.55
2016-09-09T08:54:47.884Z,28.7
2016-09-09T08:55:48.231Z,28.83
2016-09-09T08:56:47.951Z,29.08
2016-09-09T08:57:47.998Z,29.51
2016-09-09T08:58:48.043Z,29.57
2016-09-09T08:59:48.060Z,29.79
2016-09-09T09:00:48.101Z,29.85
2016-09-09T09:01:48.128Z,29.55
2016-09-09T09:03:48.193Z,29.95
2016-09-09T09:05:03.158Z,29.98
2016-09-09T09:05:48.286Z,30.08
2016-09-09T09:06:48.301Z,30.16
2016-09-09T09:08:03.277Z,30.31
2016-09-09T09:08:48.365Z,30.49
2016-09-09T09:09:48.411Z,30.46
2016-09-09T09:10:48.447Z,30.38
2016-09-09T09:11:48.474Z,30.57
2016-09-09T09:12:48.502Z,30.46
2016-09-09T09:13:48.541Z,30.1
2016-09-09T09:14:48.591Z,29.67
2016-09-09T09:15:48.633Z,29.78
2016-09-09T09:16:48.673Z,30.02
2016-09-09T09:17:48.680Z,30.27
2016-09-09T09:18:48.713Z,30.46
2016-09-09T09:19:48.769Z,30.62
2016-09-09T09:21:03.715Z,30.64
2016-09-09T09:21:48.833Z,30.76
2016-09-09T09:23:03.776Z,30.86
2016-09-09T09:23:48.897Z,30.69
2016-09-09T09:24:48.922Z,30.82
2016-09-09T09:25:48.966Z,30.6
2016-09-09T09:26:49.002Z,30.2
2016-09-09T09:27:49.072Z,30.13
2016-09-09T09:28:49.060Z,30.34
2016-09-09T09:29:49.105Z,30.58
2016-09-09T09:30:49.125Z,30.57
2016-09-09T09:31:49.191Z,30.39
2016-09-09T09:33:04.129Z,30.39
2016-09-09T09:33:49.235Z,30.57
2016-09-09T09:35:49.304Z,30.54
2016-09-09T09:37:04.266Z,30.72
2016-09-09T09:37:49.373Z,31.04
2016-09-09T09:39:04.327Z,31.29
2016-09-09T09:39:49.443Z,31.38
2016-09-09T09:40:49.521Z,31.34
2016-09-09T09:41:49.561Z,31.09
2016-09-09T09:42:49.548Z,30.69
2016-09-09T09:43:49.575Z,30.69
2016-09-09T09:44:49.616Z,30.53
2016-09-09T09:45:49.645Z,30.79
2016-09-09T09:46:49.691Z,30.46
2016-09-09T09:47:49.713Z,30.47
2016-09-09T09:48:49.749Z,30.62
2016-09-09T09:49:49.784Z,30.69
2016-09-09T09:50:49.820Z,30.79
2016-09-09T09:51:49.856Z,30.45
2016-09-09T09:53:04.827Z,30.27
2016-09-09T09:53:49.927Z,30.31
2016-09-09T09:54:49.960Z,30.32
2016-09-09T09:55:49.988Z,30.38
2016-09-09T09:56:50.026Z,30.72
2016-09-09T09:58:04.995Z,30.31
2016-09-09T09:58:50.098Z,30.34
2016-09-09T09:59:50.126Z,30.77
2016-09-09T10:00:50.161Z,30.65
2016-09-09T10:01:50.198Z,30.6
2016-09-09T10:03:50.265Z,30.65
2016-09-09T10:04:50.300Z,30.83
2016-09-09T10:05:50.335Z,30.75
2016-09-09T10:06:50.364Z,30.15
2016-09-09T10:08:05.327Z,30.16
2016-09-09T10:08:50.436Z,30.29
2016-09-09T10:09:50.472Z,30.39
2016-09-09T10:10:50.506Z,30.31
2016-09-09T10:11:50.539Z,30.16
2016-09-09T10:12:50.570Z,30.02
2016-09-09T10:13:50.614Z,29.82
2016-09-09T10:14:50.651Z,29.98
2016-09-09T10:15:50.682Z,29.87
2016-09-09T10:16:50.710Z,29.8
2016-09-09T10:17:50.743Z,29.55
2016-09-09T10:18:50.773Z,29.61
2016-09-09T10:19:50.808Z,29.61
2016-09-09T10:20:50.843Z,29.58
2016-09-09T10:22:50.911Z,29.3
2016-09-09T10:24:50.985Z,29.51
2016-09-09T10:25:51.014Z,29.16
2016-09-09T10:26:51.050Z,29.24
2016-09-09T10:27:51.085Z,29.3
2016-09-09T10:28:51.114Z,29.24
2016-09-09T10:29:51.153Z,29.09
2016-09-09T10:30:51.186Z,28.98
2016-09-09T10:31:51.224Z,28.98
2016-09-09T10:32:51.247Z,29.06
2016-09-09T10:33:51.284Z,28.9
2016-09-09T10:35:06.296Z,28.62
2016-09-09T10:35:51.354Z,28.74
2016-09-09T10:36:51.394Z,28.86
2016-09-09T10:37:51.421Z,28.85
2016-09-09T10:38:51.454Z,28.62
2016-09-09T10:40:06.407Z,28.62
2016-09-09T10:40:51.524Z,28.59
2016-09-09T10:41:51.552Z,28.59
2016-09-09T10:42:51.588Z,28.61
2016-09-09T10:43:51.618Z,28.67
2016-09-09T10:44:51.647Z,28.8
2016-09-09T10:45:51.734Z,28.83
2016-09-09T10:46:51.726Z,29
2016-09-09T10:47:51.766Z,28.74
2016-09-09T10:48:51.784Z,28.8
2016-09-09T10:50:51.850Z,28.8
2016-09-09T10:51:51.877Z,28.62
2016-09-09T10:52:51.920Z,28.77
2016-09-09T10:53:51.948Z,28.8
2016-09-09T10:56:06.937Z,28.71
2016-09-09T10:56:52.044Z,28.74
2016-09-09T10:58:06.997Z,29.05
2016-09-09T10:58:52.114Z,29.09
2016-09-09T10:59:52.145Z,29.21
2016-09-09T11:00:52.173Z,29.45
2016-09-09T11:01:52.207Z,29.48
2016-09-09T11:02:52.239Z,29.34
2016-09-09T11:03:52.269Z,29.45
2016-09-09T11:04:52.301Z,29.37
2016-09-09T11:05:52.335Z,29.12
2016-09-09T11:06:52.364Z,28.96
2016-09-09T11:07:52.407Z,29.08
2016-09-09T11:08:52.433Z,29.12
2016-09-09T11:09:52.471Z,29.14
2016-09-09T11:10:52.504Z,29.24
2016-09-09T11:12:07.455Z,29.24
2016-09-09T11:12:52.563Z,29.27
2016-09-09T11:13:52.599Z,29.34
2016-09-09T11:14:52.623Z,29.28
2016-09-09T11:15:52.659Z,29.48
2016-09-09T11:16:52.690Z,29.52
2016-09-09T11:17:52.722Z,29.63
2016-09-09T11:18:52.754Z,29.46
2016-09-09T11:19:52.802Z,29.43
2016-09-09T11:20:52.825Z,29.49
2016-09-09T11:21:52.846Z,29.33
2016-09-09T11:22:52.877Z,29.24
2016-09-09T11:23:52.911Z,29.3
2016-09-09T11:24:52.942Z,29.15
2016-09-09T11:25:52.983Z,28.78
2016-09-09T11:26:53.014Z,28.73
2016-09-09T11:28:07.970Z,28.8
2016-09-09T11:28:53.075Z,28.9
2016-09-09T11:29:53.101Z,29.09
2016-09-09T11:30:53.137Z,29.06
2016-09-09T11:31:53.171Z,28.86
2016-09-09T11:32:53.207Z,28.88
2016-09-09T11:33:53.240Z,28.81
2016-09-09T11:34:53.271Z,28.64
2016-09-09T11:36:08.232Z,28.58
2016-09-09T11:36:53.339Z,28.55
2016-09-09T11:37:53.358Z,28.68
2016-09-09T11:39:53.427Z,28.44
2016-09-09T11:40:53.460Z,28.39
2016-09-09T11:42:08.419Z,28.74
2016-09-09T11:43:08.453Z,28.81
2016-09-09T11:43:53.554Z,28.85
2016-09-09T11:44:53.585Z,28.8
2016-09-09T11:45:53.756Z,28.85
2016-09-09T11:46:53.653Z,28.71
2016-09-09T11:47:53.683Z,28.64
2016-09-09T11:48:53.713Z,28.44
2016-09-09T11:49:53.768Z,28.44
2016-09-09T11:50:53.782Z,28.44
2016-09-09T11:51:53.810Z,28.31
2016-09-09T11:52:53.842Z,28.34
2016-09-09T11:53:53.874Z,28.44
2016-09-09T11:54:53.906Z,28.7
2016-09-09T11:55:53.938Z,28.62
2016-09-09T11:56:53.963Z,28.66
2016-09-09T11:57:54.003Z,28.61
2016-09-09T11:58:54.038Z,28.76
2016-09-09T11:59:54.069Z,28.62
2016-09-09T12:00:54.095Z,28.4
2016-09-09T12:01:54.132Z,28.34
2016-09-09T12:02:54.164Z,28.3
2016-09-09T12:03:54.189Z,28.34
2016-09-09T12:04:54.216Z,28.36
2016-09-09T12:05:54.256Z,28.25
2016-09-09T12:06:54.280Z,28.39
2016-09-09T12:07:54.318Z,28.33
2016-09-09T12:08:54.344Z,28.25
2016-09-09T12:09:54.382Z,28.33
2016-09-09T12:10:54.409Z,28.19
2016-09-09T12:11:54.434Z,28.19
2016-09-09T12:12:54.479Z,28.11
2016-09-09T12:13:54.505Z,28.29
2016-09-09T12:15:09.460Z,28.39
2016-09-09T12:15:54.577Z,28.51
2016-09-09T12:16:54.598Z,28.71
2016-09-09T12:17:54.638Z,28.71
2016-09-09T12:18:54.655Z,28.54
2016-09-09T12:19:54.689Z,28.24
2016-09-09T12:20:54.727Z,28.11
2016-09-09T12:21:54.759Z,28
2016-09-09T12:22:54.785Z,28.15
2016-09-09T12:23:54.818Z,28.25
2016-09-09T12:24:54.855Z,28.43
2016-09-09T12:25:54.939Z,28.55
2016-09-09T12:26:54.915Z,28.49
2016-09-09T12:27:54.954Z,28.64
2016-09-09T12:28:54.977Z,28.66
2016-09-09T12:29:55.006Z,28.73
2016-09-09T12:31:09.967Z,29
2016-09-09T12:31:55.083Z,29.08
2016-09-09T12:33:10.026Z,29.15
2016-09-09T12:33:55.131Z,29.28
2016-09-09T12:34:55.166Z,29.26
2016-09-09T12:35:55.197Z,29.34
2016-09-09T12:36:55.226Z,29.28
2016-09-09T12:37:55.257Z,29.49
2016-09-09T12:38:55.302Z,29.63
2016-09-09T12:39:55.322Z,29.67
2016-09-09T12:40:55.361Z,29.67
2016-09-09T12:41:55.385Z,29.63
2016-09-09T12:42:55.414Z,29.7
2016-09-09T12:43:55.449Z,29.67
2016-09-09T12:44:55.480Z,29.57
2016-09-09T12:45:55.508Z,29.57
2016-09-09T12:47:11.569Z,29.57
2016-09-09T12:47:55.569Z,29.52
2016-09-09T12:48:55.608Z,29.41
2016-09-09T12:49:55.643Z,29.34
2016-09-09T12:50:55.664Z,29.16
2016-09-09T12:51:55.701Z,29.02
2016-09-09T12:52:55.735Z,29.18
2016-09-09T12:53:55.768Z,29.31
2016-09-09T12:54:55.793Z,29.41
2016-09-09T12:55:55.831Z,29.43
2016-09-09T12:56:55.864Z,29.53
2016-09-09T12:57:55.895Z,29.41
2016-09-09T12:58:56.223Z,29.28
2016-09-09T13:00:55.991Z,29.41
2016-09-09T13:01:56.018Z,29.3
2016-09-09T13:03:11.024Z,29.27
2016-09-09T13:04:56.108Z,29.15
2016-09-09T13:06:56.174Z,29.31
2016-09-09T13:07:56.205Z,29.36
2016-09-09T13:08:56.234Z,29.53
2016-09-09T13:09:56.269Z,29.63
2016-09-09T13:10:56.305Z,29.76
2016-09-09T13:11:56.333Z,29.76
2016-09-09T13:12:56.367Z,29.86
2016-09-09T13:13:56.395Z,29.87
2016-09-09T13:14:56.430Z,29.86
2016-09-09T13:16:56.493Z,29.71
2016-09-09T13:18:11.447Z,29.55
2016-09-09T13:19:56.583Z,29.49
2016-09-09T13:20:56.619Z,29.55
2016-09-09T13:21:56.646Z,29.6
2016-09-09T13:22:56.686Z,29.55
2016-09-09T13:23:56.710Z,29.63
2016-09-09T13:24:56.747Z,29.58
2016-09-09T13:25:56.776Z,29.78
2016-09-09T13:26:56.807Z,29.64
2016-09-09T13:27:56.840Z,29.57
2016-09-09T13:28:56.867Z,29.52
2016-09-09T13:29:56.901Z,29.57
2016-09-09T13:31:12.128Z,29.73
2016-09-09T13:31:56.970Z,29.65
2016-09-09T13:32:57.290Z,29.61
2016-09-09T13:33:57.034Z,29.71
2016-09-09T13:34:57.057Z,29.82
2016-09-09T13:35:57.093Z,29.63
2016-09-09T13:36:57.127Z,29.68
2016-09-09T13:37:57.158Z,29.82
2016-09-09T13:38:57.186Z,29.83